createdAt,value
2018-11-06T00:01:48.105Z,9.60
2018-11-06T00:04:16.709Z,9.60
2018-11-06T00:06:45.306Z,9.60
2018-11-06T00:09:13.980Z,9.60
2018-11-06T00:11:42.564Z,9.50
2018-11-06T00:14:11.143Z,9.50
2018-11-06T00:16:39.719Z,9.50
2018-11-06T00:19:08.326Z,9.50
2018-11-06T00:21:36.889Z,9.50
2018-11-06T00:24:05.516Z,9.40
2018-11-06T00:26:34.085Z,9.40
2018-11-06T00:29:02.739Z,9.40
2018-11-06T00:31:31.290Z,9.40
2018-11-06T00:33:59.876Z,9.40
2018-11-06T00:36:28.441Z,9.40
2018-11-06T00:38:57.015Z,9.40
2018-11-06T00:41:25.554Z,9.40
2018-11-06T00:43:54.147Z,9.30
2018-11-06T00:46:22.714Z,9.20
2018-11-06T00:48:51.302Z,9.30
2018-11-06T00:51:19.852Z,9.30
2018-11-06T00:53:48.460Z,9.30
2018-11-06T00:56:17.064Z,9.30
2018-11-06T00:58:45.676Z,9.20
2018-11-06T01:01:14.297Z,9.20
2018-11-06T01:03:48.321Z,9.20
2018-11-06T01:06:16.883Z,9.20
2018-11-06T01:08:46.130Z,9.20
2018-11-06T01:11:14.675Z,9.20
2018-11-06T01:13:43.373Z,9.20
2018-11-06T01:16:11.926Z,9.20
2018-11-06T01:18:40.482Z,9.10
2018-11-06T01:21:09.021Z,9.10
2018-11-06T01:23:38.060Z,9.10
2018-11-06T01:26:06.797Z,9.10
2018-11-06T01:28:35.457Z,9.00
2018-11-06T01:31:04.039Z,9.10
2018-11-06T01:33:32.727Z,9.00
2018-11-06T01:36:01.370Z,9.00
2018-11-06T01:38:29.938Z,9.00
2018-11-06T01:40:58.480Z,9.00
2018-11-06T01:43:27.054Z,9.00
2018-11-06T01:45:55.596Z,8.90
2018-11-06T01:48:24.161Z,8.90
2018-11-06T01:50:52.703Z,8.90
2018-11-06T01:53:21.328Z,8.90
2018-11-06T01:55:49.911Z,8.90
2018-11-06T01:58:18.527Z,8.90
2018-11-06T02:00:47.683Z,8.90
2018-11-06T02:03:16.259Z,8.90
2018-11-06T02:05:44.812Z,8.80
2018-11-06T02:08:13.355Z,8.80
2018-11-06T02:10:41.953Z,8.80
2018-11-06T02:13:10.492Z,8.80
2018-11-06T02:15:39.061Z,8.80
2018-11-06T02:18:07.682Z,8.80
2018-11-06T02:20:36.268Z,8.80
2018-11-06T02:23:05.085Z,8.70
2018-11-06T02:25:33.670Z,8.70
2018-11-06T02:28:02.208Z,8.70
2018-11-06T02:30:30.795Z,8.70
2018-11-06T02:32:59.593Z,8.70
2018-11-06T02:35:28.147Z,8.60
2018-11-06T02:37:56.704Z,8.60
2018-11-06T02:40:25.277Z,8.60
2018-11-06T02:42:54.290Z,8.60
2018-11-06T02:45:22.858Z,8.60
2018-11-06T02:47:51.402Z,8.60
2018-11-06T02:50:19.994Z,8.60
2018-11-06T02:52:48.551Z,8.50
2018-11-06T02:55:17.125Z,8.50
2018-11-06T02:57:45.748Z,8.50
2018-11-06T03:00:15.606Z,8.50
2018-11-06T03:02:44.983Z,8.50
2018-11-06T03:05:13.677Z,8.60
2018-11-06T03:07:42.459Z,8.50
2018-11-06T03:10:12.336Z,7.80
2018-11-06T03:12:42.061Z,8.20
2018-11-06T03:15:11.834Z,8.30
2018-11-06T03:17:40.444Z,8.40
2018-11-06T03:20:10.064Z,8.40
2018-11-06T03:22:38.747Z,8.40
2018-11-06T03:25:07.809Z,8.40
2018-11-06T03:27:36.532Z,8.40
2018-11-06T03:30:07.091Z,8.30
2018-11-06T03:32:35.689Z,8.30
2018-11-06T03:35:04.230Z,8.30
2018-11-06T03:37:32.752Z,8.30
2018-11-06T03:40:01.282Z,8.30
2018-11-06T03:42:29.810Z,8.30
2018-11-06T03:44:58.353Z,8.30
2018-11-06T03:47:26.874Z,8.30
2018-11-06T03:49:56.088Z,8.20
2018-11-06T03:52:24.634Z,8.20
2018-11-06T03:54:53.184Z,8.30
2018-11-06T03:57:21.719Z,8.20
2018-11-06T03:59:50.298Z,8.20
2018-11-06T04:02:18.830Z,8.20
2018-11-06T04:04:47.357Z,8.20
2018-11-06T04:07:16.050Z,8.10
2018-11-06T04:09:44.615Z,8.20
2018-11-06T04:12:13.197Z,8.10
2018-11-06T04:14:41.767Z,8.10
2018-11-06T04:17:10.329Z,8.00
2018-11-06T04:19:38.859Z,8.00
2018-11-06T04:22:07.426Z,8.00
2018-11-06T04:24:36.015Z,8.00
2018-11-06T04:27:04.724Z,8.10
2018-11-06T04:29:33.261Z,8.00
2018-11-06T04:32:01.800Z,8.00
2018-11-06T04:34:30.327Z,8.00
2018-11-06T04:36:58.878Z,8.00
2018-11-06T04:39:27.395Z,8.00
2018-11-06T04:41:55.976Z,8.00
2018-11-06T04:44:24.492Z,8.00
2018-11-06T04:46:53.109Z,7.90
2018-11-06T04:49:21.932Z,8.00
2018-11-06T04:51:50.497Z,8.00
2018-11-06T04:54:19.012Z,7.90
2018-11-06T04:56:47.553Z,7.90
2018-11-06T04:59:16.098Z,7.80
2018-11-06T05:01:44.676Z,7.80
2018-11-06T05:04:13.231Z,7.90
2018-11-06T05:06:41.925Z,7.90
2018-11-06T05:09:10.465Z,7.80
2018-11-06T05:11:39.029Z,7.80
2018-11-06T05:14:07.622Z,7.80
2018-11-06T05:16:36.146Z,7.80
2018-11-06T05:19:05.079Z,7.80
2018-11-06T05:21:33.636Z,7.80
2018-11-06T05:24:02.168Z,7.70
2018-11-06T05:26:30.723Z,7.70
2018-11-06T05:28:59.249Z,7.70
2018-11-06T05:31:27.817Z,7.70
2018-11-06T05:33:57.038Z,7.70
2018-11-06T05:36:25.595Z,7.60
2018-11-06T05:38:54.150Z,7.70
2018-11-06T05:41:22.701Z,7.60
2018-11-06T05:43:51.245Z,7.70
2018-11-06T05:46:19.808Z,7.70
2018-11-06T05:48:48.350Z,7.60
2018-11-06T05:51:16.961Z,7.60
2018-11-06T05:53:45.502Z,7.60
2018-11-06T05:56:14.075Z,7.50
2018-11-06T05:58:42.633Z,7.40
2018-11-06T06:01:11.154Z,7.50
2018-11-06T06:03:39.736Z,7.50
2018-11-06T06:06:08.303Z,7.50
2018-11-06T06:08:37.081Z,7.50
2018-11-06T06:11:06.468Z,7.50
2018-11-06T06:13:35.046Z,7.50
2018-11-06T06:16:03.617Z,7.50
2018-11-06T06:18:32.195Z,7.50
2018-11-06T06:21:00.710Z,7.50
2018-11-06T06:23:29.289Z,7.40
2018-11-06T06:25:57.835Z,7.40
2018-11-06T06:28:26.498Z,7.40
2018-11-06T06:30:55.010Z,7.40
2018-11-06T06:33:23.705Z,7.40
2018-11-06T06:35:52.289Z,7.40
2018-11-06T06:38:20.889Z,7.40
2018-11-06T06:40:49.728Z,7.40
2018-11-06T06:43:18.304Z,7.40
2018-11-06T06:45:46.846Z,7.40
2018-11-06T06:48:15.397Z,7.50
2018-11-06T06:50:44.201Z,7.40
2018-11-06T06:53:12.774Z,6.70
2018-11-06T06:55:41.304Z,6.50
2018-11-06T06:58:09.882Z,6.90
2018-11-06T07:00:38.691Z,7.10
2018-11-06T07:03:07.338Z,7.20
2018-11-06T07:05:36.474Z,7.30
2018-11-06T07:08:05.157Z,7.30
2018-11-06T07:10:33.776Z,7.40
2018-11-06T07:13:03.690Z,7.40
2018-11-06T07:15:32.396Z,7.40
2018-11-06T07:18:01.041Z,7.30
2018-11-06T07:20:29.619Z,7.30
2018-11-06T07:22:59.759Z,7.30
2018-11-06T07:25:28.300Z,7.30
2018-11-06T07:27:56.853Z,7.30
2018-11-06T07:30:25.389Z,7.30
2018-11-06T07:32:53.969Z,7.30
2018-11-06T07:35:22.641Z,7.50
2018-11-06T07:37:51.165Z,7.50
2018-11-06T07:40:20.659Z,7.50
2018-11-06T07:42:49.186Z,7.50
2018-11-06T07:45:19.307Z,7.50
2018-11-06T07:47:47.872Z,7.40
2018-11-06T07:50:17.125Z,7.60
2018-11-06T07:52:45.898Z,7.50
2018-11-06T07:55:15.816Z,7.50
2018-11-06T07:57:44.375Z,7.60
2018-11-06T08:00:18.538Z,7.70
2018-11-06T08:02:47.910Z,7.60
2018-11-06T08:05:16.898Z,7.60
2018-11-06T08:07:46.275Z,7.60
2018-11-06T08:10:14.903Z,7.60
2018-11-06T08:12:44.971Z,8.00
2018-11-06T08:15:14.294Z,8.10
2018-11-06T08:17:44.236Z,8.20
2018-11-06T08:20:13.112Z,8.60
2018-11-06T08:22:42.890Z,8.40
2018-11-06T08:25:12.851Z,8.10
2018-11-06T08:27:42.378Z,9.60
2018-11-06T08:30:11.941Z,10.30
2018-11-06T08:32:41.326Z,10.30
2018-11-06T08:35:12.102Z,10.10
2018-11-06T08:37:42.973Z,9.90
2018-11-06T08:40:15.111Z,10.20
2018-11-06T08:42:43.965Z,10.50
2018-11-06T08:45:13.692Z,10.70
2018-11-06T08:47:43.403Z,11.10
2018-11-06T08:50:13.419Z,11.50
2018-11-06T08:52:42.381Z,11.50
2018-11-06T08:55:12.139Z,11.50
2018-11-06T08:57:41.621Z,11.60
2018-11-06T09:00:13.789Z,11.40
2018-11-06T09:02:42.985Z,11.60
2018-11-06T09:05:13.110Z,12.00
2018-11-06T09:07:41.786Z,12.50
2018-11-06T09:10:11.848Z,13.00
2018-11-06T09:12:40.596Z,13.20
2018-11-06T09:15:11.241Z,13.50
2018-11-06T09:17:40.119Z,13.80
2018-11-06T09:20:10.353Z,13.50
2018-11-06T09:22:39.122Z,13.90
2018-11-06T09:25:09.706Z,13.80
2018-11-06T09:27:38.435Z,13.90
2018-11-06T09:30:09.643Z,13.90
2018-11-06T09:32:38.475Z,13.90
2018-11-06T09:35:07.956Z,13.80
2018-11-06T09:37:36.502Z,14.00
2018-11-06T09:40:05.787Z,14.40
2018-11-06T09:42:34.335Z,14.40
2018-11-06T09:45:03.832Z,14.40
2018-11-06T09:47:32.350Z,14.70
2018-11-06T09:50:00.914Z,14.70
2018-11-06T09:52:29.450Z,14.80
2018-11-06T09:54:58.046Z,13.70
2018-11-06T09:57:26.594Z,14.20
2018-11-06T09:59:55.173Z,14.90
2018-11-06T10:02:23.838Z,14.90
2018-11-06T10:04:52.449Z,15.00
2018-11-06T10:07:21.157Z,14.90
2018-11-06T10:09:49.617Z,15.10
2018-11-06T10:12:18.146Z,15.00
2018-11-06T10:14:46.711Z,15.30
2018-11-06T10:17:15.341Z,15.30
2018-11-06T10:19:43.924Z,15.40
2018-11-06T10:22:12.482Z,15.40
2018-11-06T10:24:41.094Z,15.30
2018-11-06T10:27:09.651Z,15.80
2018-11-06T10:29:39.060Z,15.70
2018-11-06T10:32:07.647Z,15.50
2018-11-06T10:34:36.247Z,15.40
2018-11-06T10:37:05.163Z,15.50
2018-11-06T10:39:33.858Z,15.50
2018-11-06T10:42:02.439Z,15.40
2018-11-06T10:44:30.986Z,15.10
2018-11-06T10:46:59.544Z,15.30
2018-11-06T10:49:28.179Z,15.30
2018-11-06T10:51:56.769Z,15.10
2018-11-06T10:54:25.304Z,15.30
2018-11-06T10:56:53.950Z,15.50
2018-11-06T10:59:22.539Z,15.80
2018-11-06T11:01:56.517Z,15.40
2018-11-06T11:04:26.114Z,15.50
2018-11-06T11:06:54.719Z,15.80
2018-11-06T11:09:23.326Z,16.00
2018-11-06T11:11:51.880Z,15.80
2018-11-06T11:14:20.485Z,15.80
2018-11-06T11:16:49.630Z,15.80
2018-11-06T11:19:18.183Z,15.70
2018-11-06T11:21:46.743Z,15.60
2018-11-06T11:24:15.304Z,15.60
2018-11-06T11:26:43.865Z,15.50
2018-11-06T11:29:12.382Z,15.60
2018-11-06T11:31:41.000Z,15.70
2018-11-06T11:34:09.551Z,15.80
2018-11-06T11:36:38.106Z,15.80
2018-11-06T11:39:08.559Z,15.90
2018-11-06T11:41:37.761Z,15.80
2018-11-06T11:44:06.484Z,15.80
2018-11-06T11:46:35.202Z,15.90
2018-11-06T11:49:03.826Z,15.90
2018-11-06T11:51:32.392Z,15.90
2018-11-06T11:54:00.970Z,15.90
2018-11-06T11:56:29.774Z,16.10
2018-11-06T11:58:58.297Z,16.20
2018-11-06T12:01:26.916Z,16.10
2018-11-06T12:03:55.459Z,16.20
2018-11-06T12:06:24.006Z,16.20
2018-11-06T12:08:52.780Z,16.40
2018-11-06T12:11:21.336Z,16.20
2018-11-06T12:13:49.891Z,16.30
2018-11-06T12:16:18.533Z,16.60
2018-11-06T12:18:47.087Z,16.60
2018-11-06T12:21:15.648Z,16.60
2018-11-06T12:23:44.227Z,16.80
2018-11-06T12:26:12.760Z,16.90
2018-11-06T12:28:41.343Z,16.70
2018-11-06T12:31:09.876Z,17.10
2018-11-06T12:33:38.421Z,17.00
2018-11-06T12:36:06.948Z,16.90
2018-11-06T12:38:36.438Z,17.10
2018-11-06T12:41:05.559Z,17.20
2018-11-06T12:43:34.183Z,17.10
2018-11-06T12:46:03.447Z,17.30
2018-11-06T12:48:32.604Z,17.40
2018-11-06T12:51:01.357Z,17.20
2018-11-06T12:53:30.060Z,17.20
2018-11-06T12:55:58.663Z,17.30
2018-11-06T12:58:27.359Z,17.30
2018-11-06T13:00:55.898Z,17.40
2018-11-06T13:03:24.499Z,17.20
2018-11-06T13:05:53.010Z,17.20
2018-11-06T13:08:21.577Z,17.20
2018-11-06T13:10:50.161Z,17.10
2018-11-06T13:13:18.730Z,16.80
2018-11-06T13:15:47.352Z,17.00
2018-11-06T13:18:15.871Z,17.20
2018-11-06T13:20:44.418Z,17.20
2018-11-06T13:23:12.983Z,17.00
2018-11-06T13:26:12.352Z,16.80
2018-11-06T13:28:41.195Z,16.90
2018-11-06T13:31:09.733Z,17.00
2018-11-06T13:33:38.341Z,17.40
2018-11-06T13:36:07.307Z,17.30
2018-11-06T13:38:35.982Z,17.40
2018-11-06T13:41:04.529Z,17.30
2018-11-06T13:43:33.201Z,17.50
2018-11-06T13:46:01.707Z,17.90
2018-11-06T13:48:30.360Z,17.90
2018-11-06T13:50:58.976Z,18.00
2018-11-06T13:53:27.533Z,18.00
2018-11-06T13:55:56.100Z,18.00
2018-11-06T13:58:24.653Z,17.90
2018-11-06T14:00:53.263Z,17.60
2018-11-06T14:03:21.835Z,17.60
2018-11-06T14:05:50.395Z,17.60
2018-11-06T14:08:18.964Z,17.40
2018-11-06T14:10:47.510Z,17.20
2018-11-06T14:13:16.073Z,17.30
2018-11-06T14:15:44.596Z,17.60
2018-11-06T14:18:13.966Z,17.30
2018-11-06T14:20:42.481Z,16.80
2018-11-06T14:23:11.048Z,16.60
2018-11-06T14:25:39.602Z,16.30
2018-11-06T14:28:08.150Z,16.40
2018-11-06T14:30:36.784Z,16.20
2018-11-06T14:33:05.574Z,16.20
2018-11-06T14:35:34.173Z,16.10
2018-11-06T14:38:02.793Z,16.10
2018-11-06T14:40:31.373Z,16.30
2018-11-06T14:42:59.993Z,16.20
2018-11-06T14:45:28.665Z,16.40
2018-11-06T14:47:57.254Z,16.40
2018-11-06T14:50:25.797Z,16.30
2018-11-06T14:52:54.350Z,16.10
2018-11-06T14:55:22.941Z,16.10
2018-11-06T14:57:51.563Z,16.40
2018-11-06T15:00:21.363Z,16.60
2018-11-06T15:02:51.253Z,16.70
2018-11-06T15:05:20.811Z,16.90
2018-11-06T15:07:49.426Z,17.10
2018-11-06T15:10:18.358Z,17.10
2018-11-06T15:12:47.018Z,17.10
2018-11-06T15:15:16.234Z,17.00
2018-11-06T15:17:45.828Z,16.70
2018-11-06T15:20:18.008Z,16.80
2018-11-06T15:22:46.872Z,16.70
2018-11-06T15:25:15.958Z,16.80
2018-11-06T15:27:44.860Z,16.90
2018-11-06T15:30:15.595Z,16.90
2018-11-06T15:32:44.241Z,16.90
2018-11-06T15:35:15.251Z,16.90
2018-11-06T15:37:43.963Z,17.00
2018-11-06T15:40:14.912Z,17.00
2018-11-06T15:42:43.529Z,17.00
2018-11-06T15:45:14.425Z,16.90
2018-11-06T15:47:43.880Z,16.90
2018-11-06T15:50:15.067Z,16.80
2018-11-06T15:52:44.648Z,16.70
2018-11-06T15:55:13.267Z,16.70
2018-11-06T15:57:41.807Z,16.50
2018-11-06T16:00:14.439Z,16.40
2018-11-06T16:02:43.678Z,16.70
2018-11-06T16:05:12.459Z,16.70
2018-11-06T16:07:41.305Z,16.70
2018-11-06T16:10:13.763Z,16.70
2018-11-06T16:12:43.075Z,16.70
2018-11-06T16:15:12.395Z,16.70
2018-11-06T16:17:42.954Z,16.60
2018-11-06T16:20:16.816Z,16.50
2018-11-06T16:22:45.768Z,16.50
2018-11-06T16:25:15.777Z,16.50
2018-11-06T16:27:44.984Z,16.50
2018-11-06T16:30:15.340Z,16.50
2018-11-06T16:32:44.156Z,16.50
2018-11-06T16:35:18.326Z,16.40
2018-11-06T16:37:47.298Z,16.30
2018-11-06T16:40:16.435Z,16.30
2018-11-06T16:42:45.702Z,16.30
2018-11-06T16:45:16.478Z,16.30
2018-11-06T16:47:46.087Z,16.20
2018-11-06T16:50:15.714Z,16.10
2018-11-06T16:52:44.461Z,16.10
2018-11-06T16:55:13.358Z,16.10
2018-11-06T16:57:42.962Z,16.20
2018-11-06T17:00:14.015Z,16.10
2018-11-06T17:02:43.098Z,16.10
2018-11-06T17:05:12.852Z,16.10
2018-11-06T17:07:43.383Z,16.00
2018-11-06T17:10:13.083Z,16.00
2018-11-06T17:12:41.649Z,16.00
2018-11-06T17:15:14.458Z,16.00
2018-11-06T17:17:43.733Z,16.00
2018-11-06T17:20:13.099Z,15.90
2018-11-06T17:22:41.857Z,15.90
2018-11-06T17:25:13.028Z,15.80
2018-11-06T17:27:41.629Z,15.80
2018-11-06T17:30:12.256Z,15.90
2018-11-06T17:32:41.087Z,15.80
2018-11-06T17:35:11.459Z,15.70
2018-11-06T17:37:40.480Z,15.60
2018-11-06T17:40:11.865Z,15.70
2018-11-06T17:42:40.822Z,15.70
2018-11-06T17:45:12.016Z,15.60
2018-11-06T17:47:40.962Z,15.60
2018-11-06T17:50:11.669Z,15.60
2018-11-06T17:52:40.363Z,15.50
2018-11-06T17:55:11.071Z,15.50
2018-11-06T17:57:40.107Z,15.50
2018-11-06T18:00:13.001Z,15.50
2018-11-06T18:02:42.011Z,15.50
2018-11-06T18:05:11.879Z,15.50
2018-11-06T18:07:41.110Z,15.40
2018-11-06T18:10:11.296Z,15.40
2018-11-06T18:12:39.887Z,15.40
2018-11-06T18:15:08.605Z,15.30
2018-11-06T18:17:38.189Z,15.30
2018-11-06T18:20:07.767Z,15.30
2018-11-06T18:22:36.335Z,15.20
2018-11-06T18:25:05.449Z,15.20
2018-11-06T18:27:34.070Z,15.20
2018-11-06T18:30:03.239Z,15.20
2018-11-06T18:32:31.994Z,15.10
2018-11-06T18:35:00.523Z,15.10
2018-11-06T18:37:29.172Z,15.10
2018-11-06T18:39:57.699Z,15.10
2018-11-06T18:42:26.262Z,15.00
2018-11-06T18:44:54.869Z,15.00
2018-11-06T18:47:23.632Z,15.00
2018-11-06T18:49:52.196Z,14.90
2018-11-06T18:52:20.822Z,14.90
2018-11-06T18:54:49.412Z,14.80
2018-11-06T18:57:17.971Z,14.80
2018-11-06T18:59:46.566Z,14.70
2018-11-06T19:02:15.178Z,14.70
2018-11-06T19:04:43.707Z,14.50
2018-11-06T19:07:12.289Z,14.50
2018-11-06T19:09:40.837Z,14.40
2018-11-06T19:12:09.382Z,14.50
2018-11-06T19:14:37.903Z,14.50
2018-11-06T19:17:06.833Z,14.60
2018-11-06T19:19:35.473Z,14.60
2018-11-06T19:22:04.803Z,14.50
2018-11-06T19:24:33.466Z,14.50
2018-11-06T19:27:02.127Z,14.40
2018-11-06T19:29:30.669Z,14.40
2018-11-06T19:31:59.245Z,14.50
2018-11-06T19:34:27.869Z,14.20
2018-11-06T19:36:56.440Z,14.40
2018-11-06T19:39:24.985Z,14.50
2018-11-06T19:41:53.654Z,14.50
2018-11-06T19:44:22.194Z,14.40
2018-11-06T19:46:50.769Z,14.50
2018-11-06T19:49:19.298Z,14.50
2018-11-06T19:51:47.910Z,14.40
2018-11-06T19:54:16.707Z,14.30
2018-11-06T19:56:45.254Z,14.30
2018-11-06T19:59:13.927Z,14.30
2018-11-06T20:01:42.494Z,14.30
2018-11-06T20:04:11.307Z,14.20
2018-11-06T20:06:39.862Z,14.20
2018-11-06T20:09:09.796Z,14.30
2018-11-06T20:11:39.082Z,14.20
2018-11-06T20:14:07.986Z,14.20
2018-11-06T20:16:36.667Z,14.20
2018-11-06T20:19:05.403Z,14.10
2018-11-06T20:21:34.176Z,14.10
2018-11-06T20:24:02.792Z,14.10
2018-11-06T20:26:31.491Z,14.10
2018-11-06T20:29:00.068Z,14.00
2018-11-06T20:31:28.640Z,14.00
2018-11-06T20:33:57.289Z,14.10
2018-11-06T20:36:26.161Z,14.20
2018-11-06T20:38:54.729Z,13.90
2018-11-06T20:41:23.427Z,14.00
2018-11-06T20:43:51.990Z,14.10
2018-11-06T20:46:20.609Z,14.10
2018-11-06T20:48:49.170Z,14.00
2018-11-06T20:51:17.882Z,13.80
2018-11-06T20:53:46.552Z,13.80
2018-11-06T20:56:15.096Z,14.00
2018-11-06T20:58:43.833Z,13.80
2018-11-06T21:01:12.432Z,13.60
2018-11-06T21:03:40.937Z,13.60
2018-11-06T21:06:09.584Z,13.80
2018-11-06T21:08:39.504Z,13.70
2018-11-06T21:11:08.117Z,13.70
2018-11-06T21:13:36.706Z,13.60
2018-11-06T21:16:07.107Z,13.40
2018-11-06T21:18:35.678Z,13.40
2018-11-06T21:21:04.250Z,13.60
2018-11-06T21:23:32.791Z,13.50
2018-11-06T21:26:01.532Z,13.50
2018-11-06T21:28:29.949Z,13.50
2018-11-06T21:30:58.481Z,13.40
2018-11-06T21:33:27.050Z,13.30
2018-11-06T21:35:55.594Z,13.30
2018-11-06T21:38:24.182Z,13.20
2018-11-06T21:40:53.392Z,13.30
2018-11-06T21:43:21.946Z,13.20
2018-11-06T21:45:50.470Z,13.30
2018-11-06T21:48:19.093Z,13.30
2018-11-06T21:50:47.622Z,13.30
2018-11-06T21:53:16.389Z,13.10
2018-11-06T21:55:44.923Z,13.30
2018-11-06T21:58:13.743Z,13.30
2018-11-06T22:00:42.357Z,13.10
2018-11-06T22:03:10.887Z,13.20
2018-11-06T22:05:39.439Z,13.00
2018-11-06T22:08:08.023Z,13.20
2018-11-06T22:10:36.577Z,13.10
2018-11-06T22:13:05.271Z,13.10
2018-11-06T22:15:33.843Z,13.10
2018-11-06T22:18:02.430Z,13.10
2018-11-06T22:20:30.978Z,13.10
2018-11-06T22:22:59.507Z,13.10
2018-11-06T22:25:28.103Z,13.10
2018-11-06T22:27:57.212Z,13.10
2018-11-06T22:30:25.770Z,13.00
2018-11-06T22:32:54.320Z,13.00
2018-11-06T22:35:22.901Z,13.00
2018-11-06T22:37:51.571Z,13.00
2018-11-06T22:40:20.143Z,13.00
2018-11-06T22:42:48.681Z,12.90
2018-11-06T22:45:18.114Z,13.00
2018-11-06T22:47:46.642Z,12.90
2018-11-06T22:50:16.498Z,12.90
2018-11-06T22:52:45.692Z,12.90
2018-11-06T22:55:15.494Z,12.80
2018-11-06T22:57:44.487Z,12.80
2018-11-06T23:00:17.771Z,12.80
2018-11-06T23:02:46.404Z,12.80
2018-11-06T23:05:15.468Z,12.70
2018-11-06T23:07:49.435Z,12.70
2018-11-06T23:10:18.006Z,12.60
2018-11-06T23:12:46.543Z,12.60
2018-11-06T23:15:15.175Z,12.60
2018-11-06T23:17:43.699Z,12.60
2018-11-06T23:20:12.296Z,12.50
2018-11-06T23:22:41.053Z,12.50
2018-11-06T23:25:09.727Z,12.60
2018-11-06T23:27:38.283Z,12.60
2018-11-06T23:30:10.933Z,12.60
2018-11-06T23:32:39.511Z,12.60
2018-11-06T23:35:08.414Z,12.50
2018-11-06T23:37:37.399Z,12.40
2018-11-06T23:40:06.390Z,12.40
2018-11-06T23:42:34.923Z,12.40
2018-11-06T23:45:04.061Z,12.40
2018-11-06T23:47:32.666Z,12.30
2018-11-06T23:50:01.753Z,12.40
2018-11-06T23:52:30.425Z,12.30
2018-11-06T23:54:59.230Z,12.30
2018-11-06T23:57:28.812Z,12.20
2018-11-06T23:59:57.636Z,12.20
